East Amwell Township, New Jersey
Current Conditions -  °F | °C
As of 3:53 PM on Tuesday 21 Oct 2014 (Local Time) from KTTN Reporting Station
Scattered Clouds Scattered Clouds  
Wind Chill: 68°   Ceiling: Unl
Heat Index: 68°   Visibility: 10mi
Dew Point: 46°   Wind: 3mph
Humidity: 45%   Direction: NA
Pressure: 29.8"   Gusts: NA
Location:  40.4412°N, 74.8354°W
Report Text: KTTN 211953Z VRB03KT 10SM SCT046 20/08 A2980 RMK AO2 SLP086 T02000078
Loading
Personal Weather Stations






























Interactive Weather Map
Tropical Storm Tracking
New forecast layout! Learn more

10-Day Weather Forecast

Advertisements
Track Severe Weather on mobile